sensor_id;sensor_type;location;lat;lon;timestamp;P1;durP1;ratioP1;P2;durP2;ratioP2
2029;SDS011;1020;48.854;8.830;2023-01-19T00:01:34;12.90;;;10.60;;
2029;SDS011;1020;48.854;8.830;2023-01-19T00:04:01;13.50;;;11.23;;
2029;SDS011;1020;48.854;8.830;2023-01-19T00:06:29;12.50;;;11.07;;
2029;SDS011;1020;48.854;8.830;2023-01-19T00:08:56;13.50;;;11.57;;
2029;SDS011;1020;48.854;8.830;2023-01-19T00:11:24;14.27;;;11.40;;
2029;SDS011;1020;48.854;8.830;2023-01-19T00:13:50;13.03;;;9.73;;
2029;SDS011;1020;48.854;8.830;2023-01-19T00:16:18;16.90;;;11.87;;
2029;SDS011;1020;48.854;8.830;2023-01-19T00:18:47;35.13;;;13.13;;
2029;SDS011;1020;48.854;8.830;2023-01-19T00:21:15;15.50;;;11.93;;
2029;SDS011;1020;48.854;8.830;2023-01-19T00:23:44;12.97;;;10.80;;
2029;SDS011;1020;48.854;8.830;2023-01-19T00:26:12;14.30;;;11.03;;
2029;SDS011;1020;48.854;8.830;2023-01-19T00:28:40;13.87;;;11.67;;
2029;SDS011;1020;48.854;8.830;2023-01-19T00:31:07;14.60;;;11.60;;
2029;SDS011;1020;48.854;8.830;2023-01-19T00:33:33;14.53;;;11.37;;
2029;SDS011;1020;48.854;8.830;2023-01-19T00:36:01;15.57;;;11.00;;
2029;SDS011;1020;48.854;8.830;2023-01-19T00:38:28;13.67;;;11.07;;
2029;SDS011;1020;48.854;8.830;2023-01-19T00:40:56;14.87;;;11.80;;
2029;SDS011;1020;48.854;8.830;2023-01-19T00:43:23;15.90;;;11.17;;
2029;SDS011;1020;48.854;8.830;2023-01-19T00:45:49;18.13;;;11.23;;
2029;SDS011;1020;48.854;8.830;2023-01-19T00:48:17;12.80;;;10.83;;
2029;SDS011;1020;48.854;8.830;2023-01-19T00:50:44;15.90;;;11.83;;
2029;SDS011;1020;48.854;8.830;2023-01-19T00:53:11;12.53;;;11.10;;
2029;SDS011;1020;48.854;8.830;2023-01-19T00:55:37;12.13;;;10.93;;
2029;SDS011;1020;48.854;8.830;2023-01-19T00:58:06;12.20;;;11.00;;
2029;SDS011;1020;48.854;8.830;2023-01-19T01:00:32;13.00;;;11.10;;
2029;SDS011;1020;48.854;8.830;2023-01-19T01:02:59;11.93;;;9.97;;
2029;SDS011;1020;48.854;8.830;2023-01-19T01:05:26;13.30;;;11.40;;
2029;SDS011;1020;48.854;8.830;2023-01-19T01:07:53;14.20;;;11.30;;
2029;SDS011;1020;48.854;8.830;2023-01-19T01:10:20;13.93;;;10.80;;
2029;SDS011;1020;48.854;8.830;2023-01-19T01:12:49;10.70;;;9.60;;
2029;SDS011;1020;48.854;8.830;2023-01-19T01:15:18;10.53;;;8.97;;
2029;SDS011;1020;48.854;8.830;2023-01-19T01:17:45;11.50;;;9.57;;
2029;SDS011;1020;48.854;8.830;2023-01-19T01:20:16;11.63;;;10.10;;
2029;SDS011;1020;48.854;8.830;2023-01-19T01:22:51;12.63;;;9.40;;
2029;SDS011;1020;48.854;8.830;2023-01-19T01:25:19;15.37;;;10.20;;
2029;SDS011;1020;48.854;8.830;2023-01-19T01:27:47;9.10;;;8.30;;
2029;SDS011;1020;48.854;8.830;2023-01-19T01:30:14;10.93;;;9.30;;
2029;SDS011;1020;48.854;8.830;2023-01-19T01:32:43;11.30;;;8.23;;
2029;SDS011;1020;48.854;8.830;2023-01-19T01:35:10;12.30;;;9.53;;
2029;SDS011;1020;48.854;8.830;2023-01-19T01:37:38;10.10;;;7.90;;
2029;SDS011;1020;48.854;8.830;2023-01-19T01:40:07;10.97;;;8.37;;
2029;SDS011;1020;48.854;8.830;2023-01-19T01:42:35;11.47;;;8.03;;
2029;SDS011;1020;48.854;8.830;2023-01-19T01:45:03;10.77;;;8.20;;
2029;SDS011;1020;48.854;8.830;2023-01-19T01:47:33;9.80;;;8.10;;
2029;SDS011;1020;48.854;8.830;2023-01-19T01:50:07;9.60;;;7.97;;
2029;SDS011;1020;48.854;8.830;2023-01-19T01:52:37;11.17;;;8.00;;
2029;SDS011;1020;48.854;8.830;2023-01-19T01:55:09;9.50;;;7.33;;
2029;SDS011;1020;48.854;8.830;2023-01-19T01:57:37;8.67;;;7.83;;
2029;SDS011;1020;48.854;8.830;2023-01-19T02:00:07;7.83;;;7.00;;
2029;SDS011;1020;48.854;8.830;2023-01-19T02:02:35;9.20;;;7.63;;
2029;SDS011;1020;48.854;8.830;2023-01-19T02:05:21;10.60;;;8.40;;
2029;SDS011;1020;48.854;8.830;2023-01-19T02:07:53;10.37;;;7.73;;
2029;SDS011;1020;48.854;8.830;2023-01-19T02:10:40;9.63;;;8.40;;
2029;SDS011;1020;48.854;8.830;2023-01-19T02:13:25;10.03;;;8.53;;
2029;SDS011;1020;48.854;8.830;2023-01-19T02:15:54;8.87;;;7.80;;
2029;SDS011;1020;48.854;8.830;2023-01-19T02:18:24;9.70;;;8.70;;
2029;SDS011;1020;48.854;8.830;2023-01-19T02:20:55;11.10;;;8.57;;
2029;SDS011;1020;48.854;8.830;2023-01-19T02:23:33;11.87;;;8.60;;
2029;SDS011;1020;48.854;8.830;2023-01-19T02:26:04;12.43;;;8.53;;
2029;SDS011;1020;48.854;8.830;2023-01-19T02:28:34;9.70;;;8.13;;
2029;SDS011;1020;48.854;8.830;2023-01-19T02:31:04;10.10;;;8.80;;
2029;SDS011;1020;48.854;8.830;2023-01-19T02:33:31;10.17;;;9.13;;
2029;SDS011;1020;48.854;8.830;2023-01-19T02:35:58;10.27;;;8.27;;
2029;SDS011;1020;48.854;8.830;2023-01-19T02:38:26;12.77;;;10.00;;
2029;SDS011;1020;48.854;8.830;2023-01-19T02:40:55;11.50;;;8.47;;
2029;SDS011;1020;48.854;8.830;2023-01-19T02:43:24;12.17;;;8.67;;
2029;SDS011;1020;48.854;8.830;2023-01-19T02:45:53;8.37;;;7.57;;
2029;SDS011;1020;48.854;8.830;2023-01-19T02:48:20;10.00;;;7.73;;
2029;SDS011;1020;48.854;8.830;2023-01-19T02:50:47;8.93;;;8.03;;
2029;SDS011;1020;48.854;8.830;2023-01-19T02:53:32;9.50;;;7.63;;
2029;SDS011;1020;48.854;8.830;2023-01-19T02:56:20;11.57;;;7.13;;
2029;SDS011;1020;48.854;8.830;2023-01-19T02:59:10;11.07;;;7.00;;
2029;SDS011;1020;48.854;8.830;2023-01-19T03:01:47;7.40;;;6.70;;
2029;SDS011;1020;48.854;8.830;2023-01-19T03:04:27;7.60;;;6.80;;
2029;SDS011;1020;48.854;8.830;2023-01-19T03:07:01;8.40;;;6.93;;
2029;SDS011;1020;48.854;8.830;2023-01-19T03:09:34;8.43;;;6.97;;
2029;SDS011;1020;48.854;8.830;2023-01-19T03:12:13;9.60;;;7.10;;
2029;SDS011;1020;48.854;8.830;2023-01-19T03:14:44;8.60;;;6.97;;
2029;SDS011;1020;48.854;8.830;2023-01-19T03:17:14;7.80;;;6.73;;
2029;SDS011;1020;48.854;8.830;2023-01-19T03:19:43;9.67;;;7.53;;
2029;SDS011;1020;48.854;8.830;2023-01-19T03:22:14;10.10;;;7.50;;
2029;SDS011;1020;48.854;8.830;2023-01-19T03:24:44;8.00;;;7.17;;
2029;SDS011;1020;48.854;8.830;2023-01-19T03:27:15;8.20;;;6.70;;
2029;SDS011;1020;48.854;8.830;2023-01-19T03:29:46;9.23;;;7.30;;
2029;SDS011;1020;48.854;8.830;2023-01-19T03:32:16;10.90;;;8.70;;
2029;SDS011;1020;48.854;8.830;2023-01-19T03:34:47;8.90;;;8.10;;
2029;SDS011;1020;48.854;8.830;2023-01-19T03:37:16;10.53;;;7.60;;
2029;SDS011;1020;48.854;8.830;2023-01-19T03:39:45;8.90;;;7.00;;
2029;SDS011;1020;48.854;8.830;2023-01-19T03:42:12;7.27;;;6.43;;
2029;SDS011;1020;48.854;8.830;2023-01-19T03:44:42;12.20;;;7.30;;
2029;SDS011;1020;48.854;8.830;2023-01-19T03:47:14;6.87;;;6.10;;
2029;SDS011;1020;48.854;8.830;2023-01-19T03:49:42;9.07;;;8.00;;
2029;SDS011;1020;48.854;8.830;2023-01-19T03:52:11;7.77;;;7.07;;
2029;SDS011;1020;48.854;8.830;2023-01-19T03:54:38;8.53;;;7.33;;
2029;SDS011;1020;48.854;8.830;2023-01-19T03:57:05;7.50;;;6.77;;
2029;SDS011;1020;48.854;8.830;2023-01-19T03:59:34;9.60;;;7.17;;
2029;SDS011;1020;48.854;8.830;2023-01-19T04:02:00;7.57;;;6.40;;
2029;SDS011;1020;48.854;8.830;2023-01-19T04:04:27;10.37;;;8.10;;
2029;SDS011;1020;48.854;8.830;2023-01-19T04:06:54;7.60;;;6.80;;
2029;SDS011;1020;48.854;8.830;2023-01-19T04:09:21;8.37;;;7.40;;
2029;SDS011;1020;48.854;8.830;2023-01-19T04:11:48;8.77;;;6.80;;
2029;SDS011;1020;48.854;8.830;2023-01-19T04:14:15;7.93;;;6.60;;
2029;SDS011;1020;48.854;8.830;2023-01-19T04:19:15;8.17;;;7.20;;
2029;SDS011;1020;48.854;8.830;2023-01-19T04:21:42;9.00;;;6.03;;
2029;SDS011;1020;48.854;8.830;2023-01-19T04:24:09;7.87;;;7.03;;
2029;SDS011;1020;48.854;8.830;2023-01-19T04:26:36;7.43;;;6.03;;
2029;SDS011;1020;48.854;8.830;2023-01-19T04:29:02;7.40;;;6.43;;
2029;SDS011;1020;48.854;8.830;2023-01-19T04:31:29;6.90;;;6.30;;
2029;SDS011;1020;48.854;8.830;2023-01-19T04:33:56;8.87;;;6.90;;
2029;SDS011;1020;48.854;8.830;2023-01-19T04:36:24;6.90;;;6.10;;
2029;SDS011;1020;48.854;8.830;2023-01-19T04:38:51;8.20;;;6.50;;
2029;SDS011;1020;48.854;8.830;2023-01-19T04:41:18;6.67;;;5.93;;
2029;SDS011;1020;48.854;8.830;2023-01-19T04:43:45;6.87;;;6.17;;
2029;SDS011;1020;48.854;8.830;2023-01-19T04:46:12;7.83;;;6.03;;
2029;SDS011;1020;48.854;8.830;2023-01-19T04:48:38;5.30;;;4.80;;
2029;SDS011;1020;48.854;8.830;2023-01-19T04:51:05;7.17;;;5.77;;
2029;SDS011;1020;48.854;8.830;2023-01-19T04:53:34;5.70;;;5.10;;
2029;SDS011;1020;48.854;8.830;2023-01-19T04:56:00;8.90;;;6.60;;
2029;SDS011;1020;48.854;8.830;2023-01-19T04:58:27;8.93;;;7.13;;
2029;SDS011;1020;48.854;8.830;2023-01-19T05:00:54;8.37;;;6.33;;
2029;SDS011;1020;48.854;8.830;2023-01-19T05:03:21;7.93;;;6.13;;
2029;SDS011;1020;48.854;8.830;2023-01-19T05:05:47;8.07;;;5.87;;
2029;SDS011;1020;48.854;8.830;2023-01-19T05:08:14;7.73;;;6.50;;
2029;SDS011;1020;48.854;8.830;2023-01-19T05:10:42;8.60;;;7.20;;
2029;SDS011;1020;48.854;8.830;2023-01-19T05:13:09;8.10;;;6.20;;
2029;SDS011;1020;48.854;8.830;2023-01-19T05:15:36;7.33;;;5.77;;
2029;SDS011;1020;48.854;8.830;2023-01-19T05:18:03;7.00;;;6.13;;
2029;SDS011;1020;48.854;8.830;2023-01-19T05:20:29;8.93;;;6.27;;
2029;SDS011;1020;48.854;8.830;2023-01-19T05:22:56;9.30;;;6.50;;
2029;SDS011;1020;48.854;8.830;2023-01-19T05:25:23;12.17;;;8.10;;
2029;SDS011;1020;48.854;8.830;2023-01-19T05:27:51;8.93;;;7.40;;
2029;SDS011;1020;48.854;8.830;2023-01-19T05:30:18;9.97;;;6.73;;
2029;SDS011;1020;48.854;8.830;2023-01-19T05:32:44;9.43;;;8.00;;
2029;SDS011;1020;48.854;8.830;2023-01-19T05:35:11;7.70;;;6.20;;
2029;SDS011;1020;48.854;8.830;2023-01-19T05:37:39;7.40;;;6.70;;
2029;SDS011;1020;48.854;8.830;2023-01-19T05:40:06;10.30;;;7.27;;
2029;SDS011;1020;48.854;8.830;2023-01-19T05:42:35;6.67;;;6.07;;
2029;SDS011;1020;48.854;8.830;2023-01-19T05:45:03;10.47;;;8.00;;
2029;SDS011;1020;48.854;8.830;2023-01-19T05:47:30;8.80;;;7.13;;
2029;SDS011;1020;48.854;8.830;2023-01-19T05:49:57;9.43;;;7.17;;
2029;SDS011;1020;48.854;8.830;2023-01-19T05:52:24;12.40;;;7.60;;
2029;SDS011;1020;48.854;8.830;2023-01-19T05:54:51;9.43;;;6.73;;
2029;SDS011;1020;48.854;8.830;2023-01-19T05:57:19;8.30;;;7.47;;
2029;SDS011;1020;48.854;8.830;2023-01-19T05:59:46;8.90;;;7.80;;
2029;SDS011;1020;48.854;8.830;2023-01-19T06:02:14;11.03;;;7.80;;
2029;SDS011;1020;48.854;8.830;2023-01-19T06:04:40;11.47;;;8.83;;
2029;SDS011;1020;48.854;8.830;2023-01-19T06:07:07;10.00;;;8.50;;
2029;SDS011;1020;48.854;8.830;2023-01-19T06:09:34;11.63;;;9.13;;
2029;SDS011;1020;48.854;8.830;2023-01-19T06:12:00;11.20;;;8.90;;
2029;SDS011;1020;48.854;8.830;2023-01-19T06:14:27;11.30;;;8.80;;
2029;SDS011;1020;48.854;8.830;2023-01-19T06:16:54;9.73;;;7.67;;
2029;SDS011;1020;48.854;8.830;2023-01-19T06:19:22;11.30;;;8.30;;
2029;SDS011;1020;48.854;8.830;2023-01-19T06:21:49;9.70;;;8.60;;
2029;SDS011;1020;48.854;8.830;2023-01-19T06:24:16;13.00;;;8.47;;
2029;SDS011;1020;48.854;8.830;2023-01-19T06:26:43;13.47;;;9.40;;
2029;SDS011;1020;48.854;8.830;2023-01-19T06:29:10;10.53;;;9.10;;
2029;SDS011;1020;48.854;8.830;2023-01-19T06:31:37;14.77;;;10.70;;
2029;SDS011;1020;48.854;8.830;2023-01-19T06:34:04;14.73;;;10.83;;
2029;SDS011;1020;48.854;8.830;2023-01-19T06:36:32;14.77;;;10.40;;
2029;SDS011;1020;48.854;8.830;2023-01-19T06:38:59;14.10;;;10.30;;
2029;SDS011;1020;48.854;8.830;2023-01-19T06:41:27;12.90;;;9.23;;
2029;SDS011;1020;48.854;8.830;2023-01-19T06:43:54;10.53;;;9.50;;
2029;SDS011;1020;48.854;8.830;2023-01-19T06:46:21;10.03;;;8.30;;
2029;SDS011;1020;48.854;8.830;2023-01-19T06:48:48;12.63;;;8.60;;
2029;SDS011;1020;48.854;8.830;2023-01-19T06:51:14;13.27;;;9.73;;
2029;SDS011;1020;48.854;8.830;2023-01-19T06:53:42;10.07;;;8.77;;
2029;SDS011;1020;48.854;8.830;2023-01-19T06:56:09;11.50;;;9.30;;
2029;SDS011;1020;48.854;8.830;2023-01-19T06:58:36;11.50;;;10.40;;
2029;SDS011;1020;48.854;8.830;2023-01-19T07:01:03;12.23;;;9.70;;
2029;SDS011;1020;48.854;8.830;2023-01-19T07:03:31;12.10;;;9.27;;
2029;SDS011;1020;48.854;8.830;2023-01-19T07:05:59;11.90;;;10.20;;
2029;SDS011;1020;48.854;8.830;2023-01-19T07:08:27;13.77;;;10.53;;
2029;SDS011;1020;48.854;8.830;2023-01-19T07:10:58;11.43;;;10.33;;
2029;SDS011;1020;48.854;8.830;2023-01-19T07:13:26;14.30;;;12.00;;
2029;SDS011;1020;48.854;8.830;2023-01-19T07:15:54;11.70;;;10.50;;
2029;SDS011;1020;48.854;8.830;2023-01-19T07:18:21;12.70;;;10.97;;
2029;SDS011;1020;48.854;8.830;2023-01-19T07:20:47;11.67;;;9.07;;
2029;SDS011;1020;48.854;8.830;2023-01-19T07:23:14;13.43;;;8.93;;
2029;SDS011;1020;48.854;8.830;2023-01-19T07:25:43;13.10;;;9.70;;
2029;SDS011;1020;48.854;8.830;2023-01-19T07:28:11;15.27;;;11.50;;
2029;SDS011;1020;48.854;8.830;2023-01-19T07:30:40;23.37;;;17.50;;
2029;SDS011;1020;48.854;8.830;2023-01-19T07:33:06;14.37;;;11.00;;
2029;SDS011;1020;48.854;8.830;2023-01-19T07:35:33;30.63;;;20.10;;
2029;SDS011;1020;48.854;8.830;2023-01-19T07:38:00;16.70;;;11.07;;
2029;SDS011;1020;48.854;8.830;2023-01-19T07:40:27;14.37;;;12.50;;
2029;SDS011;1020;48.854;8.830;2023-01-19T07:42:53;8.83;;;7.83;;
2029;SDS011;1020;48.854;8.830;2023-01-19T07:45:22;13.10;;;11.80;;
2029;SDS011;1020;48.854;8.830;2023-01-19T07:47:48;11.07;;;10.10;;
2029;SDS011;1020;48.854;8.830;2023-01-19T07:50:16;14.23;;;12.83;;
2029;SDS011;1020;48.854;8.830;2023-01-19T07:52:45;8.83;;;8.03;;
2029;SDS011;1020;48.854;8.830;2023-01-19T07:55:14;8.43;;;7.60;;
2029;SDS011;1020;48.854;8.830;2023-01-19T07:57:41;13.77;;;12.37;;
2029;SDS011;1020;48.854;8.830;2023-01-19T08:00:09;12.77;;;11.50;;
2029;SDS011;1020;48.854;8.830;2023-01-19T08:02:39;10.03;;;8.80;;
2029;SDS011;1020;48.854;8.830;2023-01-19T08:05:06;8.53;;;7.23;;
2029;SDS011;1020;48.854;8.830;2023-01-19T08:07:33;9.80;;;8.77;;
2029;SDS011;1020;48.854;8.830;2023-01-19T08:10:00;7.83;;;7.07;;
2029;SDS011;1020;48.854;8.830;2023-01-19T08:12:27;9.77;;;8.33;;
2029;SDS011;1020;48.854;8.830;2023-01-19T08:14:54;9.13;;;8.33;;
2029;SDS011;1020;48.854;8.830;2023-01-19T08:17:20;9.40;;;6.53;;
2029;SDS011;1020;48.854;8.830;2023-01-19T08:19:48;12.83;;;9.67;;
2029;SDS011;1020;48.854;8.830;2023-01-19T08:22:15;9.10;;;8.20;;
2029;SDS011;1020;48.854;8.830;2023-01-19T08:24:42;9.83;;;7.83;;
2029;SDS011;1020;48.854;8.830;2023-01-19T08:27:09;7.83;;;7.00;;
2029;SDS011;1020;48.854;8.830;2023-01-19T08:29:35;13.00;;;9.30;;
2029;SDS011;1020;48.854;8.830;2023-01-19T08:32:02;6.67;;;6.00;;
2029;SDS011;1020;48.854;8.830;2023-01-19T08:34:30;11.40;;;10.00;;
2029;SDS011;1020;48.854;8.830;2023-01-19T08:36:59;7.60;;;6.80;;
2029;SDS011;1020;48.854;8.830;2023-01-19T08:39:25;9.33;;;7.60;;
2029;SDS011;1020;48.854;8.830;2023-01-19T08:41:52;7.37;;;6.67;;
2029;SDS011;1020;48.854;8.830;2023-01-19T08:44:19;7.13;;;6.40;;
2029;SDS011;1020;48.854;8.830;2023-01-19T08:46:46;8.80;;;7.93;;
2029;SDS011;1020;48.854;8.830;2023-01-19T08:49:13;6.77;;;5.43;;
2029;SDS011;1020;48.854;8.830;2023-01-19T08:51:41;10.30;;;9.20;;
2029;SDS011;1020;48.854;8.830;2023-01-19T08:54:11;10.43;;;6.90;;
2029;SDS011;1020;48.854;8.830;2023-01-19T08:56:38;7.57;;;6.63;;
2029;SDS011;1020;48.854;8.830;2023-01-19T08:59:04;7.63;;;6.90;;
2029;SDS011;1020;48.854;8.830;2023-01-19T09:01:31;9.23;;;7.33;;
2029;SDS011;1020;48.854;8.830;2023-01-19T09:03:58;10.77;;;8.87;;
2029;SDS011;1020;48.854;8.830;2023-01-19T09:06:25;12.20;;;7.63;;
2029;SDS011;1020;48.854;8.830;2023-01-19T09:08:52;13.60;;;11.40;;
2029;SDS011;1020;48.854;8.830;2023-01-19T09:11:20;8.83;;;7.93;;
2029;SDS011;1020;48.854;8.830;2023-01-19T09:13:47;9.80;;;7.10;;
2029;SDS011;1020;48.854;8.830;2023-01-19T09:16:13;11.07;;;8.00;;
2029;SDS011;1020;48.854;8.830;2023-01-19T09:18:40;9.57;;;8.13;;
2029;SDS011;1020;48.854;8.830;2023-01-19T09:21:09;9.83;;;7.67;;
2029;SDS011;1020;48.854;8.830;2023-01-19T09:23:35;6.90;;;6.30;;
2029;SDS011;1020;48.854;8.830;2023-01-19T09:26:03;8.77;;;6.20;;
2029;SDS011;1020;48.854;8.830;2023-01-19T09:28:32;8.40;;;6.93;;
2029;SDS011;1020;48.854;8.830;2023-01-19T09:31:02;7.73;;;5.93;;
2029;SDS011;1020;48.854;8.830;2023-01-19T09:33:29;8.43;;;6.17;;
2029;SDS011;1020;48.854;8.830;2023-01-19T09:35:56;6.47;;;5.87;;
2029;SDS011;1020;48.854;8.830;2023-01-19T09:38:23;7.87;;;7.10;;
2029;SDS011;1020;48.854;8.830;2023-01-19T09:40:51;7.20;;;6.50;;
2029;SDS011;1020;48.854;8.830;2023-01-19T09:43:23;11.70;;;7.50;;
2029;SDS011;1020;48.854;8.830;2023-01-19T09:45:59;8.63;;;7.50;;
2029;SDS011;1020;48.854;8.830;2023-01-19T09:48:29;14.03;;;8.50;;
2029;SDS011;1020;48.854;8.830;2023-01-19T09:51:04;8.67;;;7.50;;
2029;SDS011;1020;48.854;8.830;2023-01-19T09:53:41;8.23;;;7.37;;
2029;SDS011;1020;48.854;8.830;2023-01-19T09:56:20;7.50;;;6.80;;
2029;SDS011;1020;48.854;8.830;2023-01-19T09:58:48;7.97;;;7.17;;
2029;SDS011;1020;48.854;8.830;2023-01-19T10:07:02;7.67;;;7.07;;
2029;SDS011;1020;48.854;8.830;2023-01-19T10:09:36;6.97;;;6.37;;
2029;SDS011;1020;48.854;8.830;2023-01-19T10:12:17;9.10;;;6.10;;
2029;SDS011;1020;48.854;8.830;2023-01-19T10:14:54;7.60;;;6.83;;
2029;SDS011;1020;48.854;8.830;2023-01-19T10:17:32;6.50;;;5.90;;
2029;SDS011;1020;48.854;8.830;2023-01-19T10:20:10;7.40;;;6.40;;
2029;SDS011;1020;48.854;8.830;2023-01-19T10:22:42;7.80;;;7.00;;
2029;SDS011;1020;48.854;8.830;2023-01-19T10:25:14;7.30;;;6.60;;
2029;SDS011;1020;48.854;8.830;2023-01-19T10:27:44;7.60;;;6.90;;
2029;SDS011;1020;48.854;8.830;2023-01-19T10:30:14;6.80;;;6.10;;
2029;SDS011;1020;48.854;8.830;2023-01-19T10:32:46;10.53;;;6.23;;
2029;SDS011;1020;48.854;8.830;2023-01-19T10:35:17;6.00;;;5.40;;
2029;SDS011;1020;48.854;8.830;2023-01-19T10:37:48;7.40;;;6.70;;
2029;SDS011;1020;48.854;8.830;2023-01-19T10:40:18;6.30;;;5.70;;
2029;SDS011;1020;48.854;8.830;2023-01-19T10:42:52;6.30;;;5.67;;
2029;SDS011;1020;48.854;8.830;2023-01-19T10:45:22;7.30;;;6.40;;
2029;SDS011;1020;48.854;8.830;2023-01-19T10:47:51;7.60;;;6.90;;
2029;SDS011;1020;48.854;8.830;2023-01-19T10:50:21;6.90;;;6.20;;
2029;SDS011;1020;48.854;8.830;2023-01-19T10:52:51;7.90;;;7.10;;
2029;SDS011;1020;48.854;8.830;2023-01-19T10:55:23;7.47;;;6.07;;
2029;SDS011;1020;48.854;8.830;2023-01-19T10:57:52;7.30;;;6.60;;
2029;SDS011;1020;48.854;8.830;2023-01-19T11:00:29;6.67;;;6.17;;
2029;SDS011;1020;48.854;8.830;2023-01-19T11:03:00;6.63;;;5.93;;
2029;SDS011;1020;48.854;8.830;2023-01-19T11:05:27;6.30;;;5.70;;
2029;SDS011;1020;48.854;8.830;2023-01-19T11:07:55;7.07;;;6.47;;
2029;SDS011;1020;48.854;8.830;2023-01-19T11:10:23;7.37;;;6.70;;
2029;SDS011;1020;48.854;8.830;2023-01-19T11:12:54;7.30;;;6.50;;
2029;SDS011;1020;48.854;8.830;2023-01-19T11:15:27;7.53;;;6.50;;
2029;SDS011;1020;48.854;8.830;2023-01-19T11:17:56;13.40;;;11.50;;
2029;SDS011;1020;48.854;8.830;2023-01-19T11:20:25;6.57;;;5.90;;
2029;SDS011;1020;48.854;8.830;2023-01-19T11:23:05;8.90;;;7.30;;
2029;SDS011;1020;48.854;8.830;2023-01-19T11:25:43;8.47;;;7.63;;
2029;SDS011;1020;48.854;8.830;2023-01-19T11:28:14;8.77;;;7.97;;
2029;SDS011;1020;48.854;8.830;2023-01-19T11:30:52;7.17;;;6.47;;
2029;SDS011;1020;48.854;8.830;2023-01-19T11:33:24;7.67;;;7.00;;
2029;SDS011;1020;48.854;8.830;2023-01-19T11:36:02;7.60;;;6.30;;
2029;SDS011;1020;48.854;8.830;2023-01-19T11:38:30;8.57;;;7.40;;
2029;SDS011;1020;48.854;8.830;2023-01-19T11:40:58;7.47;;;6.77;;
2029;SDS011;1020;48.854;8.830;2023-01-19T11:43:30;9.83;;;8.17;;
2029;SDS011;1020;48.854;8.830;2023-01-19T11:45:57;8.40;;;7.50;;
2029;SDS011;1020;48.854;8.830;2023-01-19T11:48:27;10.23;;;9.17;;
2029;SDS011;1020;48.854;8.830;2023-01-19T11:50:57;8.70;;;7.33;;
2029;SDS011;1020;48.854;8.830;2023-01-19T11:53:29;8.10;;;7.40;;
2029;SDS011;1020;48.854;8.830;2023-01-19T11:56:00;9.97;;;8.07;;
2029;SDS011;1020;48.854;8.830;2023-01-19T11:58:30;19.00;;;15.50;;
2029;SDS011;1020;48.854;8.830;2023-01-19T12:00:59;18.23;;;16.33;;
2029;SDS011;1020;48.854;8.830;2023-01-19T12:03:32;13.03;;;10.33;;
2029;SDS011;1020;48.854;8.830;2023-01-19T12:06:03;9.00;;;8.03;;
2029;SDS011;1020;48.854;8.830;2023-01-19T12:08:38;7.63;;;6.83;;
2029;SDS011;1020;48.854;8.830;2023-01-19T12:11:09;8.40;;;7.40;;
2029;SDS011;1020;48.854;8.830;2023-01-19T12:13:41;6.40;;;5.73;;
2029;SDS011;1020;48.854;8.830;2023-01-19T12:16:09;6.97;;;5.40;;
2029;SDS011;1020;48.854;8.830;2023-01-19T12:18:43;7.00;;;5.50;;
2029;SDS011;1020;48.854;8.830;2023-01-19T12:21:13;5.80;;;5.23;;
2029;SDS011;1020;48.854;8.830;2023-01-19T12:23:43;6.50;;;5.30;;
2029;SDS011;1020;48.854;8.830;2023-01-19T12:26:24;6.17;;;5.57;;
2029;SDS011;1020;48.854;8.830;2023-01-19T12:28:54;6.43;;;5.80;;
2029;SDS011;1020;48.854;8.830;2023-01-19T12:31:25;7.90;;;5.60;;
2029;SDS011;1020;48.854;8.830;2023-01-19T12:33:52;6.60;;;5.33;;
2029;SDS011;1020;48.854;8.830;2023-01-19T12:39:09;5.83;;;5.13;;
2029;SDS011;1020;48.854;8.830;2023-01-19T12:41:41;7.00;;;5.27;;
2029;SDS011;1020;48.854;8.830;2023-01-19T12:44:13;7.30;;;5.83;;
2029;SDS011;1020;48.854;8.830;2023-01-19T12:46:46;6.57;;;4.77;;
2029;SDS011;1020;48.854;8.830;2023-01-19T12:49:19;6.30;;;5.70;;
2029;SDS011;1020;48.854;8.830;2023-01-19T12:51:50;6.63;;;5.90;;
2029;SDS011;1020;48.854;8.830;2023-01-19T12:54:22;5.90;;;5.30;;
2029;SDS011;1020;48.854;8.830;2023-01-19T12:56:55;5.73;;;5.23;;
2029;SDS011;1020;48.854;8.830;2023-01-19T12:59:25;6.93;;;6.23;;
2029;SDS011;1020;48.854;8.830;2023-01-19T13:05:12;6.23;;;5.63;;
2029;SDS011;1020;48.854;8.830;2023-01-19T13:10:54;5.70;;;5.20;;
2029;SDS011;1020;48.854;8.830;2023-01-19T13:13:44;5.53;;;5.03;;
2029;SDS011;1020;48.854;8.830;2023-01-19T13:16:52;10.27;;;8.40;;
2029;SDS011;1020;48.854;8.830;2023-01-19T13:19:43;6.13;;;5.63;;
2029;SDS011;1020;48.854;8.830;2023-01-19T13:25:39;7.00;;;5.30;;
2029;SDS011;1020;48.854;8.830;2023-01-19T13:28:11;6.80;;;5.60;;
2029;SDS011;1020;48.854;8.830;2023-01-19T13:30:44;7.57;;;6.03;;
2029;SDS011;1020;48.854;8.830;2023-01-19T13:33:21;6.53;;;5.73;;
2029;SDS011;1020;48.854;8.830;2023-01-19T13:35:50;6.70;;;6.10;;
2029;SDS011;1020;48.854;8.830;2023-01-19T13:38:20;6.60;;;6.00;;
2029;SDS011;1020;48.854;8.830;2023-01-19T13:40:48;6.73;;;6.10;;
2029;SDS011;1020;48.854;8.830;2023-01-19T13:43:17;8.10;;;6.87;;
2029;SDS011;1020;48.854;8.830;2023-01-19T13:45:48;7.47;;;6.77;;
2029;SDS011;1020;48.854;8.830;2023-01-19T13:48:17;6.47;;;5.80;;
2029;SDS011;1020;48.854;8.830;2023-01-19T13:51:00;6.10;;;5.50;;
2029;SDS011;1020;48.854;8.830;2023-01-19T13:53:28;7.30;;;6.60;;
2029;SDS011;1020;48.854;8.830;2023-01-19T13:56:05;6.40;;;5.90;;
2029;SDS011;1020;48.854;8.830;2023-01-19T13:58:42;8.83;;;7.57;;
2029;SDS011;1020;48.854;8.830;2023-01-19T14:01:21;6.90;;;6.17;;
2029;SDS011;1020;48.854;8.830;2023-01-19T14:03:48;8.57;;;6.80;;
2029;SDS011;1020;48.854;8.830;2023-01-19T14:06:21;9.33;;;8.00;;
2029;SDS011;1020;48.854;8.830;2023-01-19T14:11:31;11.13;;;7.60;;
2029;SDS011;1020;48.854;8.830;2023-01-19T14:13:59;9.03;;;8.13;;
2029;SDS011;1020;48.854;8.830;2023-01-19T14:16:26;7.80;;;7.10;;
2029;SDS011;1020;48.854;8.830;2023-01-19T14:18:57;9.33;;;7.87;;
2029;SDS011;1020;48.854;8.830;2023-01-19T14:21:35;9.30;;;8.30;;
2029;SDS011;1020;48.854;8.830;2023-01-19T14:24:07;9.43;;;8.43;;
2029;SDS011;1020;48.854;8.830;2023-01-19T14:26:43;8.27;;;7.47;;
2029;SDS011;1020;48.854;8.830;2023-01-19T14:29:21;9.57;;;7.63;;
2029;SDS011;1020;48.854;8.830;2023-01-19T14:31:50;8.33;;;7.50;;
2029;SDS011;1020;48.854;8.830;2023-01-19T14:34:32;9.57;;;7.70;;
2029;SDS011;1020;48.854;8.830;2023-01-19T14:37:04;9.30;;;7.20;;
2029;SDS011;1020;48.854;8.830;2023-01-19T14:39:42;9.00;;;7.57;;
2029;SDS011;1020;48.854;8.830;2023-01-19T14:42:12;10.10;;;8.37;;
2029;SDS011;1020;48.854;8.830;2023-01-19T14:44:43;8.10;;;6.50;;
2029;SDS011;1020;48.854;8.830;2023-01-19T14:47:19;8.20;;;7.40;;
2029;SDS011;1020;48.854;8.830;2023-01-19T14:49:51;9.60;;;7.57;;
2029;SDS011;1020;48.854;8.830;2023-01-19T14:52:22;11.80;;;8.83;;
2029;SDS011;1020;48.854;8.830;2023-01-19T14:54:51;9.90;;;8.90;;
2029;SDS011;1020;48.854;8.830;2023-01-19T14:57:20;8.73;;;7.93;;
2029;SDS011;1020;48.854;8.830;2023-01-19T14:59:48;8.83;;;7.70;;
2029;SDS011;1020;48.854;8.830;2023-01-19T15:02:16;9.60;;;8.20;;
2029;SDS011;1020;48.854;8.830;2023-01-19T15:04:43;7.47;;;6.27;;
2029;SDS011;1020;48.854;8.830;2023-01-19T15:07:12;8.83;;;7.13;;
2029;SDS011;1020;48.854;8.830;2023-01-19T15:09:43;8.23;;;7.37;;
2029;SDS011;1020;48.854;8.830;2023-01-19T15:12:10;8.50;;;7.60;;
2029;SDS011;1020;48.854;8.830;2023-01-19T15:14:39;8.37;;;7.57;;
2029;SDS011;1020;48.854;8.830;2023-01-19T15:17:08;7.40;;;6.60;;
2029;SDS011;1020;48.854;8.830;2023-01-19T15:19:40;8.23;;;6.57;;
2029;SDS011;1020;48.854;8.830;2023-01-19T15:22:09;8.40;;;7.20;;
2029;SDS011;1020;48.854;8.830;2023-01-19T15:24:36;8.13;;;7.20;;
2029;SDS011;1020;48.854;8.830;2023-01-19T15:27:04;7.87;;;7.17;;
2029;SDS011;1020;48.854;8.830;2023-01-19T15:29:34;9.10;;;7.70;;
2029;SDS011;1020;48.854;8.830;2023-01-19T15:32:01;7.70;;;6.97;;
2029;SDS011;1020;48.854;8.830;2023-01-19T15:34:29;8.70;;;7.80;;
2029;SDS011;1020;48.854;8.830;2023-01-19T15:36:56;10.13;;;9.20;;
2029;SDS011;1020;48.854;8.830;2023-01-19T15:39:24;9.90;;;8.93;;
2029;SDS011;1020;48.854;8.830;2023-01-19T15:41:51;10.70;;;9.40;;
2029;SDS011;1020;48.854;8.830;2023-01-19T15:44:18;11.80;;;10.53;;
2029;SDS011;1020;48.854;8.830;2023-01-19T15:46:45;13.00;;;11.60;;